createdAt,value
2023-01-13T00:20:57.097Z,66
2023-01-13T00:50:20.529Z,69
2023-01-13T01:19:41.095Z,69
2023-01-13T01:49:01.966Z,70
2023-01-13T02:18:11.486Z,69
2023-01-13T02:47:22.294Z,70
2023-01-13T03:16:45.064Z,71
2023-01-13T03:46:01.091Z,72
2023-01-13T04:15:14.919Z,73
2023-01-13T04:44:34.842Z,76
2023-01-13T05:13:54.506Z,75
2023-01-13T05:43:08.374Z,74
2023-01-13T06:12:29.891Z,74
2023-01-13T06:41:38.980Z,75
2023-01-13T07:10:50.869Z,75
2023-01-13T07:40:04.638Z,86
2023-01-13T08:09:17.323Z,90
2023-01-13T08:38:26.411Z,92
2023-01-13T09:07:29.510Z,87
2023-01-13T09:36:41.836Z,93
2023-01-13T10:05:43.080Z,92
2023-01-13T10:34:49.988Z,84
2023-01-13T11:03:59.276Z,85
2023-01-13T11:33:02.922Z,81
2023-01-13T12:02:15.988Z,76
2023-01-13T12:31:30.621Z,72
2023-01-13T13:00:34.593Z,77
2023-01-13T13:29:49.488Z,79
2023-01-13T13:59:02.013Z,67
2023-01-13T14:28:02.107Z,68
2023-01-13T14:57:23.213Z,69
2023-01-13T15:26:27.813Z,69
2023-01-13T15:55:34.272Z,68
2023-01-13T16:24:52.957Z,74
2023-01-13T16:54:02.001Z,77
2023-01-13T17:23:05.101Z,79
2023-01-13T17:52:15.375Z,83
2023-01-13T18:21:29.474Z,85
2023-01-13T18:50:43.213Z,84
2023-01-13T19:19:55.138Z,84
2023-01-13T19:49:13.807Z,83
2023-01-13T20:18:34.597Z,81
2023-01-13T20:47:49.882Z,81
2023-01-13T21:17:15.419Z,80
2023-01-13T21:46:25.146Z,77
2023-01-13T22:15:32.388Z,76
2023-01-13T22:44:51.692Z,79
2023-01-13T23:14:03.862Z,82
2023-01-13T23:43:27.274Z,84
